createdAt,value
2023-05-08T00:01:44.678Z,4.90
2023-05-08T00:04:11.482Z,4.10
2023-05-08T00:06:38.202Z,4.57
2023-05-08T00:09:04.849Z,4.20
2023-05-08T00:11:31.511Z,4.53
2023-05-08T00:13:58.180Z,4.90
2023-05-08T00:16:24.813Z,11.07
2023-05-08T00:18:53.497Z,6.13
2023-05-08T00:21:20.522Z,4.80
2023-05-08T00:23:47.184Z,4.80
2023-05-08T00:26:13.806Z,4.43
2023-05-08T00:28:40.446Z,4.60
2023-05-08T00:31:07.100Z,4.07
2023-05-08T00:33:33.700Z,4.50
2023-05-08T00:36:04.669Z,4.50
2023-05-08T00:38:32.899Z,4.63
2023-05-08T00:41:00.266Z,4.40
2023-05-08T00:43:28.445Z,4.88
2023-05-08T00:46:01.179Z,5.15
2023-05-08T00:48:30.573Z,4.53
2023-05-08T00:50:58.318Z,5.28
2023-05-08T00:53:27.551Z,4.33
2023-05-08T00:55:54.528Z,4.45
2023-05-08T00:58:23.206Z,4.60
2023-05-08T01:00:54.141Z,4.82
2023-05-08T01:03:21.890Z,4.72
2023-05-08T01:05:48.891Z,4.50
2023-05-08T01:08:15.845Z,4.80
2023-05-08T01:10:54.222Z,5.10
2023-05-08T01:13:48.015Z,5.38
2023-05-08T01:16:39.533Z,5.10
2023-05-08T01:19:15.682Z,5.00
2023-05-08T01:21:50.475Z,4.88
2023-05-08T01:24:35.873Z,4.63
2023-05-08T01:27:29.665Z,5.00
2023-05-08T01:30:26.783Z,5.10
2023-05-08T01:33:08.280Z,4.87
2023-05-08T01:35:49.812Z,5.10
2023-05-08T01:38:21.385Z,5.10
2023-05-08T01:40:50.877Z,4.90
2023-05-08T01:43:33.925Z,4.90
2023-05-08T01:46:08.917Z,5.00
2023-05-08T01:48:42.490Z,5.30
2023-05-08T01:51:18.144Z,5.43
2023-05-08T01:53:49.744Z,5.25
2023-05-08T01:56:23.962Z,5.03
2023-05-08T01:58:52.995Z,5.10
2023-05-08T02:01:24.334Z,4.82
2023-05-08T02:03:52.757Z,5.43
2023-05-08T02:06:21.998Z,5.57
2023-05-08T02:08:51.450Z,5.70
2023-05-08T02:11:19.658Z,6.37
2023-05-08T02:13:48.510Z,6.45
2023-05-08T02:16:16.184Z,6.07
2023-05-08T02:18:48.351Z,5.85
2023-05-08T02:21:15.756Z,7.00
2023-05-08T02:23:45.349Z,6.30
2023-05-08T02:26:15.778Z,6.20
2023-05-08T02:28:43.011Z,6.60
2023-05-08T02:31:12.056Z,6.97
2023-05-08T02:33:41.624Z,7.00
2023-05-08T02:36:10.832Z,6.73
2023-05-08T02:38:39.734Z,7.40
2023-05-08T02:41:07.956Z,7.90
2023-05-08T02:43:35.500Z,7.13
2023-05-08T02:46:07.987Z,6.70
2023-05-08T02:48:41.002Z,6.93
2023-05-08T02:51:16.466Z,7.57
2023-05-08T02:53:52.034Z,7.10
2023-05-08T02:56:27.156Z,8.00
2023-05-08T02:59:01.246Z,7.60
2023-05-08T03:01:42.081Z,7.97
2023-05-08T03:04:12.339Z,8.40
2023-05-08T03:06:43.014Z,7.68
2023-05-08T03:09:20.679Z,7.43
2023-05-08T03:11:49.986Z,7.60
2023-05-08T03:14:20.754Z,6.70
2023-05-08T03:16:50.445Z,7.10
2023-05-08T03:19:24.874Z,6.88
2023-05-08T03:21:54.022Z,6.72
2023-05-08T03:24:23.964Z,6.70
2023-05-08T03:26:51.055Z,7.70
2023-05-08T03:29:18.987Z,8.00
2023-05-08T03:31:47.419Z,8.63
2023-05-08T03:34:16.272Z,9.25
2023-05-08T03:36:42.985Z,9.27
2023-05-08T03:39:09.909Z,8.53
2023-05-08T03:41:36.780Z,8.73
2023-05-08T03:44:04.154Z,7.45
2023-05-08T03:46:35.832Z,7.25
2023-05-08T03:49:04.944Z,6.90
2023-05-08T03:51:32.459Z,7.20
2023-05-08T03:53:59.164Z,6.63
2023-05-08T03:56:26.213Z,6.63
2023-05-08T03:59:14.373Z,6.20
2023-05-08T04:01:50.350Z,5.50
2023-05-08T04:04:19.245Z,5.30
2023-05-08T04:07:08.418Z,5.57
2023-05-08T04:09:39.348Z,5.15
2023-05-08T04:12:19.931Z,5.10
2023-05-08T04:14:54.198Z,5.20
2023-05-08T04:17:32.645Z,4.57
2023-05-08T04:20:05.035Z,5.50
2023-05-08T04:22:34.705Z,7.05
2023-05-08T04:25:04.057Z,7.10
2023-05-08T04:27:31.638Z,5.85
2023-05-08T04:29:58.700Z,5.30
2023-05-08T04:32:26.221Z,5.30
2023-05-08T04:34:53.298Z,6.00
2023-05-08T04:37:25.670Z,5.50
2023-05-08T04:39:53.282Z,4.78
2023-05-08T04:42:20.557Z,24.00
2023-05-08T04:44:47.658Z,12.02
2023-05-08T04:47:14.709Z,6.00
2023-05-08T04:49:41.550Z,6.90
2023-05-08T04:52:08.520Z,6.53
2023-05-08T04:54:35.219Z,6.53
2023-05-08T04:57:02.057Z,6.90
2023-05-08T04:59:29.549Z,6.70
2023-05-08T05:01:57.339Z,6.15
2023-05-08T05:04:23.978Z,6.20
2023-05-08T05:06:50.874Z,6.20
2023-05-08T05:09:17.528Z,5.80
2023-05-08T05:11:44.243Z,5.50
2023-05-08T05:14:11.041Z,5.82
2023-05-08T05:16:38.099Z,6.07
2023-05-08T05:19:04.900Z,6.43
2023-05-08T05:21:31.595Z,6.03
2023-05-08T05:23:58.368Z,5.95
2023-05-08T05:26:24.995Z,5.55
2023-05-08T05:28:51.615Z,5.38
2023-05-08T05:31:18.449Z,5.57
2023-05-08T05:33:45.649Z,5.38
2023-05-08T05:36:12.370Z,5.55
2023-05-08T05:38:39.327Z,5.30
2023-05-08T05:41:06.018Z,4.88
2023-05-08T05:43:33.275Z,4.97
2023-05-08T05:46:07.783Z,5.28
2023-05-08T05:48:34.520Z,4.95
2023-05-08T05:51:01.370Z,4.65
2023-05-08T05:53:28.441Z,4.85
2023-05-08T05:55:55.064Z,5.60
2023-05-08T05:58:21.767Z,5.57
2023-05-08T06:00:48.410Z,5.47
2023-05-08T06:03:15.168Z,5.30
2023-05-08T06:05:42.044Z,4.65
2023-05-08T06:08:08.998Z,4.33
2023-05-08T06:10:36.392Z,4.85
2023-05-08T06:13:03.203Z,5.25
2023-05-08T06:15:30.024Z,5.20
2023-05-08T06:17:57.078Z,4.70
2023-05-08T06:20:25.620Z,5.13
2023-05-08T06:22:53.113Z,4.90
2023-05-08T06:25:20.204Z,4.97
2023-05-08T06:27:46.953Z,4.80
2023-05-08T06:30:13.762Z,4.60
2023-05-08T06:32:40.644Z,4.83
2023-05-08T06:35:07.796Z,4.53
2023-05-08T06:37:34.524Z,4.88
2023-05-08T06:40:11.683Z,4.10
2023-05-08T06:42:39.399Z,3.88
2023-05-08T06:45:07.413Z,3.87
2023-05-08T06:47:34.112Z,3.50
2023-05-08T06:50:00.994Z,3.20
2023-05-08T06:52:27.672Z,3.55
2023-05-08T06:54:54.322Z,3.38
2023-05-08T06:57:21.146Z,3.90
2023-05-08T06:59:47.740Z,4.00
2023-05-08T07:02:16.122Z,3.60
2023-05-08T07:04:44.260Z,3.78
2023-05-08T07:07:11.717Z,3.72
2023-05-08T07:09:38.459Z,3.73
2023-05-08T07:12:05.541Z,4.18
2023-05-08T07:14:32.219Z,4.03
2023-05-08T07:17:01.001Z,4.20
2023-05-08T07:19:27.716Z,4.03
2023-05-08T07:21:54.412Z,4.07
2023-05-08T07:24:21.084Z,4.50
2023-05-08T07:26:47.696Z,4.95
2023-05-08T07:29:14.428Z,4.80
2023-05-08T07:31:41.762Z,4.75
2023-05-08T07:34:08.522Z,5.10
2023-05-08T07:36:35.244Z,4.82
2023-05-08T07:39:01.918Z,5.00
2023-05-08T07:41:28.704Z,4.00
2023-05-08T07:43:55.408Z,4.47
2023-05-08T07:46:22.731Z,4.63
2023-05-08T07:48:49.518Z,5.25
2023-05-08T07:51:16.496Z,5.10
2023-05-08T07:53:43.690Z,4.38
2023-05-08T07:56:10.407Z,3.75
2023-05-08T07:58:37.148Z,3.50
2023-05-08T08:01:03.963Z,3.15
2023-05-08T08:03:30.670Z,3.80
2023-05-08T08:05:57.544Z,4.05
2023-05-08T08:08:24.254Z,3.38
2023-05-08T08:10:51.043Z,3.20
2023-05-08T08:13:17.831Z,3.70
2023-05-08T08:15:44.774Z,4.00
2023-05-08T08:18:11.654Z,3.65
2023-05-08T08:20:38.473Z,4.20
2023-05-08T08:23:05.980Z,3.53
2023-05-08T08:25:33.023Z,3.60
2023-05-08T08:27:59.669Z,3.20
2023-05-08T08:30:26.567Z,3.72
2023-05-08T08:32:53.357Z,2.83
2023-05-08T08:35:20.265Z,2.70
2023-05-08T08:37:46.936Z,2.55
2023-05-08T08:40:13.768Z,2.65
2023-05-08T08:42:40.996Z,2.63
2023-05-08T08:45:08.545Z,2.85
2023-05-08T08:47:41.369Z,2.77
2023-05-08T08:50:11.274Z,2.30
2023-05-08T08:52:54.143Z,2.10
2023-05-08T08:55:23.362Z,2.90
2023-05-08T08:58:00.704Z,3.40
2023-05-08T09:00:31.164Z,3.20
2023-05-08T09:02:58.192Z,2.40
2023-05-08T09:05:26.476Z,2.40
2023-05-08T09:07:56.455Z,2.20
2023-05-08T09:10:24.757Z,2.50
2023-05-08T09:12:51.845Z,2.30
2023-05-08T09:15:18.718Z,2.40
2023-05-08T09:17:45.383Z,2.20
2023-05-08T09:20:14.906Z,2.58
2023-05-08T09:22:42.991Z,2.20
2023-05-08T09:25:10.676Z,2.10
2023-05-08T09:27:37.598Z,2.10
2023-05-08T09:30:12.916Z,2.25
2023-05-08T09:32:41.170Z,2.00
2023-05-08T09:35:09.129Z,2.40
2023-05-08T09:37:39.840Z,2.27
2023-05-08T09:40:20.966Z,2.30
2023-05-08T09:42:49.122Z,2.55
2023-05-08T09:45:29.002Z,2.63
2023-05-08T09:47:55.857Z,2.90
2023-05-08T09:50:22.722Z,2.50
2023-05-08T09:52:50.799Z,2.38
2023-05-08T09:55:18.343Z,2.80
2023-05-08T09:57:59.235Z,2.60
2023-05-08T10:00:28.133Z,2.50
2023-05-08T10:02:57.815Z,2.57
2023-05-08T10:05:27.745Z,2.60
2023-05-08T10:07:54.762Z,3.17
2023-05-08T10:10:28.348Z,2.80
2023-05-08T10:12:56.991Z,3.00
2023-05-08T10:15:26.129Z,2.70
2023-05-08T10:18:08.962Z,2.80
2023-05-08T10:20:39.880Z,2.90
2023-05-08T10:23:14.436Z,3.20
2023-05-08T10:25:47.285Z,2.90
2023-05-08T10:28:28.638Z,3.00
2023-05-08T10:31:00.407Z,2.88
2023-05-08T10:33:34.052Z,2.60
2023-05-08T10:36:01.509Z,2.60
2023-05-08T10:38:28.287Z,2.40
2023-05-08T10:40:58.205Z,2.70
2023-05-08T10:43:26.186Z,2.70
2023-05-08T10:45:54.989Z,2.67
2023-05-08T10:48:46.790Z,2.53
2023-05-08T10:51:22.212Z,2.67
2023-05-08T10:54:06.683Z,2.47
2023-05-08T10:56:33.397Z,2.65
2023-05-08T10:59:00.102Z,3.15
2023-05-08T11:01:27.175Z,3.38
2023-05-08T11:03:56.206Z,3.80
2023-05-08T11:06:44.566Z,3.80
2023-05-08T11:09:15.784Z,3.72
2023-05-08T11:11:59.184Z,3.80
2023-05-08T11:14:27.010Z,3.60
2023-05-08T11:16:53.613Z,4.13
2023-05-08T11:19:22.018Z,3.60
2023-05-08T11:22:19.309Z,3.60
2023-05-08T11:24:58.097Z,3.80
2023-05-08T11:27:48.158Z,3.55
2023-05-08T11:30:32.942Z,3.25
2023-05-08T11:33:06.075Z,3.60
2023-05-08T11:35:51.715Z,3.83
2023-05-08T11:38:19.725Z,3.95
2023-05-08T11:40:47.818Z,4.05
2023-05-08T11:43:33.071Z,4.20
2023-05-08T11:46:20.781Z,4.37
2023-05-08T11:48:48.146Z,4.63
2023-05-08T11:51:18.325Z,4.22
2023-05-08T11:53:45.747Z,4.60
2023-05-08T11:56:12.667Z,4.28
2023-05-08T11:58:39.305Z,3.70
2023-05-08T12:01:06.088Z,3.90
2023-05-08T12:03:33.041Z,4.40
2023-05-08T12:06:00.192Z,3.90
2023-05-08T12:08:27.187Z,4.30
2023-05-08T12:10:56.606Z,4.17
2023-05-08T12:13:30.595Z,4.50
2023-05-08T12:16:01.034Z,4.40
2023-05-08T12:18:29.391Z,4.43
2023-05-08T12:20:58.000Z,4.45
2023-05-08T12:23:29.536Z,3.80
2023-05-08T12:26:00.633Z,3.47
2023-05-08T12:28:28.019Z,3.13
2023-05-08T12:30:54.943Z,2.85
2023-05-08T12:33:22.303Z,2.88
2023-05-08T12:35:49.590Z,3.90
2023-05-08T12:38:16.514Z,3.17
2023-05-08T12:40:46.298Z,2.90
2023-05-08T12:43:13.299Z,4.00
2023-05-08T12:45:41.850Z,3.53
2023-05-08T12:48:13.620Z,3.40
2023-05-08T12:50:45.410Z,3.75
2023-05-08T12:53:14.266Z,3.63
2023-05-08T12:55:52.756Z,3.95
2023-05-08T12:58:20.484Z,4.38
2023-05-08T13:00:49.541Z,3.30
2023-05-08T13:03:26.910Z,3.53
2023-05-08T13:05:55.521Z,3.70
2023-05-08T13:08:33.261Z,2.92
2023-05-08T13:11:01.153Z,3.20
2023-05-08T13:13:30.884Z,2.90
2023-05-08T13:15:57.795Z,3.20
2023-05-08T13:18:29.279Z,3.03
2023-05-08T13:20:56.775Z,3.10
2023-05-08T13:23:24.089Z,3.38
2023-05-08T13:25:51.249Z,2.80
2023-05-08T13:28:18.006Z,2.95
2023-05-08T13:30:44.713Z,2.58
2023-05-08T13:33:11.426Z,2.80
2023-05-08T13:35:38.209Z,3.33
2023-05-08T13:38:04.890Z,2.80
2023-05-08T13:40:31.706Z,2.60
2023-05-08T13:42:58.390Z,2.80
2023-05-08T13:45:25.322Z,2.55
2023-05-08T13:47:52.141Z,2.40
2023-05-08T13:50:22.192Z,2.40
2023-05-08T13:52:49.157Z,2.40
2023-05-08T13:55:16.388Z,2.42
2023-05-08T13:57:43.415Z,2.72
2023-05-08T14:00:11.129Z,2.55
2023-05-08T14:02:38.154Z,2.53
2023-05-08T14:05:07.926Z,2.33
2023-05-08T14:07:35.256Z,2.30
2023-05-08T14:10:02.180Z,2.45
2023-05-08T14:12:28.904Z,2.90
2023-05-08T14:14:55.848Z,3.20
2023-05-08T14:17:22.678Z,2.67
2023-05-08T14:19:50.526Z,2.50
2023-05-08T14:22:17.311Z,3.20
2023-05-08T14:24:44.343Z,3.00
2023-05-08T14:27:11.307Z,2.67
2023-05-08T14:29:38.250Z,2.80
2023-05-08T14:32:05.391Z,2.65
2023-05-08T14:34:32.426Z,2.70
2023-05-08T14:36:59.082Z,2.90
2023-05-08T14:39:26.173Z,2.60
2023-05-08T14:42:14.185Z,2.70
2023-05-08T14:44:39.498Z,2.55
2023-05-08T14:47:06.576Z,2.33
2023-05-08T14:49:38.004Z,2.75
2023-05-08T14:52:06.336Z,2.70
2023-05-08T14:54:33.153Z,2.58
2023-05-08T14:57:00.279Z,2.97
2023-05-08T14:59:26.907Z,3.30
2023-05-08T15:01:53.708Z,2.78
2023-05-08T15:04:20.679Z,2.80
2023-05-08T15:06:47.600Z,3.00
2023-05-08T15:09:16.315Z,2.50
2023-05-08T15:11:43.086Z,2.47
2023-05-08T15:14:10.046Z,1.90
2023-05-08T15:16:36.884Z,2.17
2023-05-08T15:19:03.583Z,2.08
2023-05-08T15:21:30.335Z,2.00
2023-05-08T15:23:57.095Z,2.10
2023-05-08T15:26:23.845Z,1.60
2023-05-08T15:28:50.972Z,2.00
2023-05-08T15:31:18.156Z,2.35
2023-05-08T15:33:45.249Z,2.35
2023-05-08T15:36:13.613Z,2.50
2023-05-08T15:38:41.417Z,2.63
2023-05-08T15:41:12.143Z,2.60
2023-05-08T15:43:40.871Z,2.50
2023-05-08T15:46:07.614Z,2.50
2023-05-08T15:48:34.430Z,2.67
2023-05-08T15:51:01.200Z,2.55
2023-05-08T15:53:27.936Z,2.70
2023-05-08T15:55:55.655Z,2.80
2023-05-08T15:58:22.578Z,2.53
2023-05-08T16:00:49.533Z,2.60
2023-05-08T16:03:16.308Z,2.45
2023-05-08T16:05:43.383Z,2.37
2023-05-08T16:08:12.809Z,2.50
2023-05-08T16:10:41.397Z,2.90
2023-05-08T16:13:08.439Z,2.00
2023-05-08T16:15:35.319Z,2.55
2023-05-08T16:18:02.794Z,3.00
2023-05-08T16:20:29.586Z,3.33
2023-05-08T16:22:56.465Z,2.40
2023-05-08T16:25:23.353Z,2.20
2023-05-08T16:27:50.312Z,2.40
2023-05-08T16:30:18.233Z,2.30
2023-05-08T16:32:46.112Z,2.50
2023-05-08T16:35:13.437Z,3.35
2023-05-08T16:37:40.438Z,2.92
2023-05-08T16:40:08.260Z,2.97
2023-05-08T16:42:35.289Z,4.70
2023-05-08T16:45:02.702Z,3.30
2023-05-08T16:47:29.526Z,2.70
2023-05-08T16:49:56.369Z,5.32
2023-05-08T16:52:23.047Z,18.52
2023-05-08T16:54:49.715Z,8.70
2023-05-08T16:57:16.523Z,5.88
2023-05-08T16:59:43.636Z,5.65
2023-05-08T17:02:11.883Z,4.03
2023-05-08T17:04:38.596Z,3.40
2023-05-08T17:07:05.800Z,3.50
2023-05-08T17:09:34.021Z,3.20
2023-05-08T17:12:02.209Z,3.20
2023-05-08T17:14:28.839Z,3.10
2023-05-08T17:16:55.527Z,3.50
2023-05-08T17:19:22.256Z,2.70
2023-05-08T17:21:48.838Z,3.08
2023-05-08T17:24:15.462Z,3.50
2023-05-08T17:26:43.233Z,3.08
2023-05-08T17:29:09.927Z,2.97
2023-05-08T17:31:36.591Z,2.70
2023-05-08T17:34:03.473Z,3.20
2023-05-08T17:36:30.560Z,4.20
2023-05-08T17:38:57.287Z,5.35
2023-05-08T17:41:24.016Z,4.68
2023-05-08T17:43:51.984Z,4.80
2023-05-08T17:46:18.747Z,4.53
2023-05-08T17:48:45.401Z,4.22
2023-05-08T17:51:13.493Z,4.07
2023-05-08T17:53:40.487Z,3.85
2023-05-08T17:56:07.744Z,3.60
2023-05-08T17:58:34.437Z,3.70
2023-05-08T18:01:01.199Z,6.30
2023-05-08T18:03:27.924Z,6.25
2023-05-08T18:05:54.661Z,6.10
2023-05-08T18:08:21.287Z,5.73
2023-05-08T18:10:47.967Z,4.60
2023-05-08T18:13:14.786Z,6.30
2023-05-08T18:15:41.675Z,5.63
2023-05-08T18:18:08.511Z,5.07
2023-05-08T18:20:35.492Z,5.03
2023-05-08T18:23:02.151Z,5.60
2023-05-08T18:25:28.961Z,5.82
2023-05-08T18:27:55.792Z,6.53
2023-05-08T18:30:22.775Z,6.40
2023-05-08T18:32:50.678Z,6.57
2023-05-08T18:35:17.893Z,7.38
2023-05-08T18:37:44.528Z,6.82
2023-05-08T18:40:11.955Z,6.55
2023-05-08T18:42:38.813Z,7.55
2023-05-08T18:45:06.103Z,7.03
2023-05-08T18:47:32.822Z,7.15
2023-05-08T18:50:00.049Z,6.78
2023-05-08T18:52:26.911Z,6.75
2023-05-08T18:54:53.517Z,6.60
2023-05-08T18:57:20.192Z,6.40
2023-05-08T18:59:46.854Z,5.85
2023-05-08T19:02:13.705Z,6.00
2023-05-08T19:04:40.576Z,5.97
2023-05-08T19:07:07.362Z,5.82
2023-05-08T19:09:34.137Z,5.80
2023-05-08T19:12:01.066Z,5.72
2023-05-08T19:14:27.724Z,5.65
2023-05-08T19:16:56.333Z,6.00
2023-05-08T19:19:25.066Z,5.68
2023-05-08T19:21:51.766Z,5.90
2023-05-08T19:24:20.824Z,6.00
2023-05-08T19:26:47.726Z,5.53
2023-05-08T19:29:14.401Z,9.35
2023-05-08T19:31:41.386Z,6.40
2023-05-08T19:34:08.247Z,5.10
2023-05-08T19:36:37.508Z,3.42
2023-05-08T19:39:04.681Z,3.53
2023-05-08T19:41:31.344Z,3.15
2023-05-08T19:43:58.062Z,2.90
2023-05-08T19:46:24.816Z,2.63
2023-05-08T19:48:51.640Z,2.65
2023-05-08T19:51:18.450Z,2.80
2023-05-08T19:53:45.208Z,2.28
2023-05-08T19:56:11.955Z,2.90
2023-05-08T19:58:38.653Z,3.03
2023-05-08T20:01:05.367Z,2.78
2023-05-08T20:03:32.314Z,2.83
2023-05-08T20:05:59.061Z,3.10
2023-05-08T20:08:25.731Z,3.50
2023-05-08T20:10:52.549Z,3.30
2023-05-08T20:13:19.403Z,6.10
2023-05-08T20:15:46.299Z,5.57
2023-05-08T20:18:13.076Z,7.82
2023-05-08T20:20:39.722Z,3.53
2023-05-08T20:23:06.637Z,3.80
2023-05-08T20:25:33.323Z,18.27
2023-05-08T20:28:00.039Z,13.05
2023-05-08T20:30:26.812Z,8.52
2023-05-08T20:32:53.520Z,7.25
2023-05-08T20:35:20.222Z,3.90
2023-05-08T20:37:47.912Z,3.90
2023-05-08T20:40:15.331Z,3.60
2023-05-08T20:42:42.261Z,3.58
2023-05-08T20:45:09.877Z,5.50
2023-05-08T20:47:36.736Z,9.80
2023-05-08T20:50:04.256Z,4.40
2023-05-08T20:52:35.326Z,4.40
2023-05-08T20:55:04.566Z,3.65
2023-05-08T20:57:31.245Z,10.90
2023-05-08T20:59:57.961Z,6.97
2023-05-08T21:02:24.747Z,16.25
2023-05-08T21:04:52.785Z,12.25
2023-05-08T21:07:19.528Z,5.20
2023-05-08T21:09:46.268Z,3.20
2023-05-08T21:12:12.898Z,3.50
2023-05-08T21:14:39.528Z,4.80
2023-05-08T21:17:06.126Z,19.20
2023-05-08T21:19:32.925Z,8.43
2023-05-08T21:22:00.806Z,4.60
2023-05-08T21:24:27.444Z,3.77
2023-05-08T21:26:54.128Z,3.22
2023-05-08T21:29:20.953Z,3.28
2023-05-08T21:31:47.615Z,3.00
2023-05-08T21:34:15.375Z,3.55
2023-05-08T21:36:42.306Z,5.47
2023-05-08T21:39:09.417Z,4.60
2023-05-08T21:41:36.056Z,5.20
2023-05-08T21:44:02.767Z,4.53
2023-05-08T21:46:29.535Z,3.80
2023-05-08T21:48:56.274Z,3.50
2023-05-08T21:51:22.965Z,3.90
2023-05-08T21:53:49.669Z,4.00
2023-05-08T21:56:16.651Z,3.58
2023-05-08T21:58:43.353Z,3.65
2023-05-08T22:01:10.049Z,3.40
2023-05-08T22:03:37.013Z,3.30
2023-05-08T22:06:03.936Z,3.50
2023-05-08T22:08:30.703Z,3.45
2023-05-08T22:10:57.439Z,3.28
2023-05-08T22:13:24.095Z,3.70
2023-05-08T22:15:51.106Z,3.30
2023-05-08T22:18:18.073Z,3.50
2023-05-08T22:20:44.731Z,3.90
2023-05-08T22:23:11.540Z,4.03
2023-05-08T22:25:38.261Z,3.90
2023-05-08T22:28:05.038Z,5.53
2023-05-08T22:30:31.681Z,5.10
2023-05-08T22:32:59.317Z,4.22
2023-05-08T22:35:27.626Z,4.30
2023-05-08T22:37:55.554Z,4.20
2023-05-08T22:40:22.343Z,4.65
2023-05-08T22:42:51.302Z,4.53
2023-05-08T22:45:18.768Z,5.07
2023-05-08T22:47:45.909Z,5.85
2023-05-08T22:50:12.679Z,5.40
2023-05-08T22:52:39.617Z,5.82
2023-05-08T22:55:07.075Z,5.55
2023-05-08T22:57:33.883Z,5.63
2023-05-08T23:00:00.538Z,6.15
2023-05-08T23:02:35.214Z,5.77
2023-05-08T23:05:02.332Z,5.65
2023-05-08T23:07:29.399Z,6.10
2023-05-08T23:09:56.111Z,5.40
2023-05-08T23:12:22.933Z,5.70
2023-05-08T23:14:49.581Z,6.50
2023-05-08T23:17:16.269Z,5.65
2023-05-08T23:19:42.996Z,6.55
2023-05-08T23:22:09.941Z,5.68
2023-05-08T23:24:37.053Z,6.13
2023-05-08T23:27:03.766Z,6.17
2023-05-08T23:29:30.588Z,7.28
2023-05-08T23:31:57.212Z,7.78
2023-05-08T23:34:23.815Z,7.10
2023-05-08T23:36:50.444Z,6.50
2023-05-08T23:39:17.123Z,6.57
2023-05-08T23:41:43.718Z,7.20
2023-05-08T23:44:10.367Z,7.15
2023-05-08T23:46:37.211Z,8.30
2023-05-08T23:49:05.489Z,7.88
2023-05-08T23:51:32.507Z,7.90
2023-05-08T23:53:59.182Z,18.42
2023-05-08T23:56:26.910Z,10.30
2023-05-08T23:58:53.603Z,8.68
